AAL202 KMCO-KIAH
Flight info
| Callsign | AAL202 |
|---|---|
| Flight time | N/A |
| Altitude | 35000 |
| Route | DCT REMIS Q100 LEV DCT KIAH |
| Aircraft | A320/M-SDE3FGHIRWXYZ/L |
Departure
| Time | 2026-04-24 22:44 |
|---|---|
| Airport | Orlando International Airport (KMCO) |
Arrival
| Time | N/A |
|---|---|
| Airport | George Bush Intercontinental Airport (KIAH) |
| Time | Latitude | Longitude | Altitude | Speed | Heading |
|---|---|---|---|---|---|
| 2026-04-24 22:18 | 28.43608 | -81.31253 | 102 ft | 0 kts | 204° |
| 2026-04-24 22:35 | 28.43622 | -81.31246 | 100 ft | 3 kts | 197° |
| 2026-04-24 22:36 | 28.43640 | -81.31245 | 101 ft | 3 kts | 185° |
| 2026-04-24 22:36 | 28.43658 | -81.31237 | 101 ft | 3 kts | 229° |
| 2026-04-24 22:36 | 28.43667 | -81.31219 | 102 ft | 0 kts | 271° |
| 2026-04-24 22:39 | 28.43667 | -81.31220 | 102 ft | 1 kts | 271° |
| 2026-04-24 22:39 | 28.43668 | -81.31247 | 101 ft | 12 kts | 277° |
| 2026-04-24 22:39 | 28.43693 | -81.31434 | 101 ft | 35 kts | 281° |
| 2026-04-24 22:39 | 28.43770 | -81.31646 | 105 ft | 19 kts | 325° |
| 2026-04-24 22:40 | 28.43844 | -81.31726 | 105 ft | 9 kts | 272° |
| 2026-04-24 22:40 | 28.43848 | -81.31798 | 107 ft | 9 kts | 284° |
| 2026-04-24 22:40 | 28.43912 | -81.31871 | 108 ft | 27 kts | 318° |
| 2026-04-24 22:40 | 28.44064 | -81.32014 | 110 ft | 35 kts | 7° |
| 2026-04-24 22:41 | 28.44316 | -81.32010 | 107 ft | 30 kts | 359° |
| 2026-04-24 22:41 | 28.44518 | -81.32010 | 104 ft | 25 kts | 1° |
| 2026-04-24 22:41 | 28.44685 | -81.32015 | 102 ft | 21 kts | 345° |
| 2026-04-24 22:41 | 28.44714 | -81.32114 | 102 ft | 6 kts | 270° |
| 2026-04-24 22:42 | 28.44714 | -81.32115 | 102 ft | 0 kts | 270° |
| 2026-04-24 22:42 | 28.44714 | -81.32121 | 102 ft | 3 kts | 270° |
| 2026-04-24 22:42 | 28.44713 | -81.32163 | 103 ft | 8 kts | 269° |
| 2026-04-24 22:43 | 28.44703 | -81.32209 | 102 ft | 5 kts | 243° |
| 2026-04-24 22:43 | 28.44684 | -81.32225 | 103 ft | 7 kts | 206° |
| 2026-04-24 22:43 | 28.44493 | -81.32224 | 104 ft | 67 kts | 180° |
| 2026-04-24 22:43 | 28.43724 | -81.32216 | 109 ft | 153 kts | 178° |
| 2026-04-24 22:44 | 28.42390 | -81.32157 | 125 ft | 229 kts | 175° |
| 2026-04-24 22:44 | 28.40619 | -81.31961 | 741 ft | 273 kts | 167° |
| 2026-04-24 22:44 | 28.38667 | -81.31640 | 2035 ft | 291 kts | 164° |
| 2026-04-24 22:44 | 28.36645 | -81.31361 | 3516 ft | 299 kts | 173° |
| 2026-04-24 22:45 | 28.34471 | -81.31790 | 4027 ft | 340 kts | 195° |
| 2026-04-24 22:45 | 28.32421 | -81.33316 | 4732 ft | 366 kts | 220° |
| 2026-04-24 22:45 | 28.31042 | -81.35735 | 6033 ft | 366 kts | 245° |
| 2026-04-24 22:45 | 28.30564 | -81.38564 | 7259 ft | 374 kts | 262° |
| 2026-04-24 22:46 | 28.30750 | -81.41638 | 7223 ft | 411 kts | 272° |
| 2026-04-24 22:46 | 28.31211 | -81.45017 | 6767 ft | 453 kts | 273° |
| 2026-04-24 22:46 | 28.31740 | -81.48670 | 6493 ft | 483 kts | 273° |
| 2026-04-24 22:46 | 28.32209 | -81.52518 | 6515 ft | 500 kts | 271° |
| 2026-04-24 22:47 | 28.32522 | -81.56487 | 6758 ft | 508 kts | 268° |
| 2026-04-24 22:47 | 28.32689 | -81.60489 | 7320 ft | 499 kts | 266° |
| 2026-04-24 22:47 | 28.32825 | -81.64227 | 8260 ft | 452 kts | 266° |
| 2026-04-24 22:47 | 28.32983 | -81.67655 | 9208 ft | 417 kts | 266° |
| 2026-04-24 22:48 | 28.33158 | -81.70824 | 10246 ft | 389 kts | 268° |
| 2026-04-24 22:48 | 28.33356 | -81.73808 | 11114 ft | 367 kts | 267° |
| 2026-04-24 22:48 | 28.33480 | -81.76566 | 12276 ft | 335 kts | 264° |
| 2026-04-24 22:48 | 28.33706 | -81.79080 | 11903 ft | 339 kts | 285° |
| 2026-04-24 22:49 | 28.34659 | -81.81446 | 13242 ft | 309 kts | 291° |
| 2026-04-24 22:49 | 28.35479 | -81.83548 | 14779 ft | 285 kts | 284° |
| 2026-04-24 22:49 | 28.35795 | -81.85800 | 15070 ft | 298 kts | 258° |
| 2026-04-24 22:49 | 28.35497 | -81.88200 | 15090 ft | 318 kts | 255° |
| 2026-04-24 22:50 | 28.35195 | -81.90761 | 15086 ft | 337 kts | 267° |
| 2026-04-24 22:50 | 28.35038 | -81.93488 | 15111 ft | 355 kts | 267° |
| 2026-04-24 22:50 | 28.34784 | -81.96342 | 15149 ft | 371 kts | 264° |
| 2026-04-24 22:50 | 28.34430 | -81.99290 | 15202 ft | 383 kts | 262° |
| 2026-04-24 22:51 | 28.34027 | -82.02314 | 15244 ft | 392 kts | 262° |
| 2026-04-24 22:51 | 28.33610 | -82.05398 | 15380 ft | 397 kts | 262° |
| 2026-04-24 22:51 | 28.33193 | -82.08490 | 15701 ft | 396 kts | 262° |
| 2026-04-24 22:51 | 28.32778 | -82.11586 | 15986 ft | 397 kts | 262° |
| 2026-04-24 22:52 | 28.32363 | -82.14692 | 16199 ft | 399 kts | 262° |
| 2026-04-24 22:52 | 28.31948 | -82.17814 | 16357 ft | 402 kts | 262° |
| 2026-04-24 22:52 | 28.31533 | -82.20950 | 16730 ft | 398 kts | 262° |
| 2026-04-24 22:52 | 28.31129 | -82.24015 | 17409 ft | 389 kts | 262° |
| 2026-04-24 22:53 | 28.30723 | -82.27094 | 17517 ft | 406 kts | 262° |
| 2026-04-24 22:53 | 28.30294 | -82.30366 | 17628 ft | 431 kts | 262° |
| 2026-04-24 22:53 | 28.29844 | -82.33806 | 17911 ft | 449 kts | 262° |
| 2026-04-24 22:53 | 28.29378 | -82.37360 | 18396 ft | 460 kts | 262° |
| 2026-04-24 22:54 | 28.28901 | -82.40978 | 19015 ft | 466 kts | 262° |
| 2026-04-24 22:54 | 28.28422 | -82.44615 | 19812 ft | 466 kts | 262° |
| 2026-04-24 22:54 | 28.27941 | -82.48243 | 20754 ft | 463 kts | 262° |
| 2026-04-24 22:54 | 28.27464 | -82.51839 | 21825 ft | 458 kts | 262° |
| 2026-04-24 22:55 | 28.26993 | -82.55378 | 23022 ft | 449 kts | 262° |
| 2026-04-24 22:55 | 28.26687 | -82.57674 | 23802 ft | 444 kts | 262° |
| 2026-04-24 22:55 | 28.26226 | -82.61150 | 24437 ft | 447 kts | 262° |
| 2026-04-24 22:55 | 28.25608 | -82.65829 | 25231 ft | 450 kts | 262° |
| 2026-04-24 22:56 | 28.25300 | -82.68158 | 25629 ft | 452 kts | 262° |
| 2026-04-24 22:56 | 28.24834 | -82.71685 | 26230 ft | 454 kts | 261° |
| 2026-04-24 22:56 | 28.24366 | -82.75215 | 27018 ft | 450 kts | 261° |
| 2026-04-24 22:56 | 28.23903 | -82.78708 | 27946 ft | 445 kts | 261° |
| 2026-04-24 22:57 | 28.23447 | -82.82151 | 28854 ft | 439 kts | 261° |
| 2026-04-24 22:57 | 28.22995 | -82.85555 | 29767 ft | 434 kts | 260° |
| 2026-04-24 22:57 | 28.22545 | -82.88925 | 30546 ft | 430 kts | 260° |
| 2026-04-24 22:57 | 28.22095 | -82.92262 | 31269 ft | 426 kts | 260° |
| 2026-04-24 22:58 | 28.21648 | -82.95565 | 31998 ft | 422 kts | 260° |
| 2026-04-24 22:58 | 28.21204 | -82.98838 | 32700 ft | 419 kts | 260° |
| 2026-04-24 22:58 | 28.20761 | -83.02091 | 33333 ft | 417 kts | 260° |
| 2026-04-24 22:58 | 28.20316 | -83.05354 | 33687 ft | 422 kts | 260° |
| 2026-04-24 22:59 | 28.19861 | -83.08671 | 33843 ft | 430 kts | 260° |
| 2026-04-24 22:59 | 28.19402 | -83.12016 | 33907 ft | 440 kts | 259° |
| 2026-04-24 23:00 | 28.17976 | -83.22372 | 33948 ft | 443 kts | 260° |
| 2026-04-24 23:00 | 28.17026 | -83.29271 | 33947 ft | 443 kts | 259° |
| 2026-04-24 23:01 | 28.16072 | -83.36165 | 33947 ft | 443 kts | 259° |
| 2026-04-24 23:01 | 28.15112 | -83.43062 | 33948 ft | 442 kts | 259° |
| 2026-04-24 23:02 | 28.14155 | -83.49947 | 33950 ft | 442 kts | 259° |
| 2026-04-24 23:02 | 28.13194 | -83.56838 | 33954 ft | 443 kts | 259° |
| 2026-04-24 23:03 | 28.12228 | -83.63727 | 33955 ft | 443 kts | 259° |
| 2026-04-24 23:03 | 28.11257 | -83.70612 | 33948 ft | 443 kts | 259° |
| 2026-04-24 23:04 | 28.10283 | -83.77504 | 33951 ft | 443 kts | 259° |
| 2026-04-24 23:04 | 28.09939 | -83.79927 | 33951 ft | 443 kts | 259° |
| 2026-04-24 23:05 | 28.08977 | -83.86683 | 33952 ft | 444 kts | 259° |
| 2026-04-24 23:05 | 28.07991 | -83.93588 | 33952 ft | 445 kts | 259° |
| 2026-04-24 23:06 | 28.07009 | -84.00448 | 33949 ft | 431 kts | 259° |
| 2026-04-24 23:06 | 28.06061 | -84.07042 | 33953 ft | 425 kts | 259° |
| 2026-04-24 23:07 | 28.05108 | -84.13636 | 33951 ft | 429 kts | 259° |
| 2026-04-24 23:07 | 28.04143 | -84.20283 | 33949 ft | 427 kts | 259° |
| 2026-04-24 23:08 | 28.03176 | -84.26927 | 33949 ft | 428 kts | 259° |
| 2026-04-24 23:08 | 28.02204 | -84.33575 | 33947 ft | 428 kts | 259° |
| 2026-04-24 23:09 | 28.01231 | -84.40220 | 33949 ft | 428 kts | 259° |
| 2026-04-24 23:09 | 28.00254 | -84.46866 | 33948 ft | 428 kts | 259° |
| 2026-04-24 23:10 | 27.99274 | -84.53513 | 33945 ft | 428 kts | 259° |
| 2026-04-24 23:10 | 27.98289 | -84.60155 | 33946 ft | 429 kts | 259° |
| 2026-04-24 23:11 | 27.97298 | -84.66820 | 33947 ft | 430 kts | 259° |
| 2026-04-24 23:11 | 27.96304 | -84.73477 | 33946 ft | 429 kts | 260° |
| 2026-04-24 23:12 | 27.95307 | -84.80145 | 33945 ft | 431 kts | 260° |
| 2026-04-24 23:12 | 27.94304 | -84.86827 | 33942 ft | 431 kts | 260° |
| 2026-04-24 23:13 | 27.93300 | -84.93503 | 33943 ft | 430 kts | 260° |
| 2026-04-24 23:13 | 27.92290 | -85.00188 | 33945 ft | 432 kts | 260° |
| 2026-04-24 23:14 | 27.91275 | -85.06897 | 33943 ft | 433 kts | 260° |
| 2026-04-24 23:14 | 27.90253 | -85.13620 | 34087 ft | 436 kts | 260° |
| 2026-04-24 23:14 | 27.89745 | -85.16958 | 34396 ft | 438 kts | 261° |
| 2026-04-24 23:15 | 27.89224 | -85.20375 | 34631 ft | 443 kts | 261° |
| 2026-04-24 23:15 | 27.88976 | -85.23825 | 35102 ft | 442 kts | 275° |
| 2026-04-24 23:15 | 27.89553 | -85.27252 | 35386 ft | 446 kts | 283° |
| 2026-04-24 23:15 | 27.90358 | -85.30586 | 35447 ft | 433 kts | 285° |
| 2026-04-24 23:16 | 27.91214 | -85.33802 | 35442 ft | 424 kts | 286° |
| 2026-04-24 23:16 | 27.93045 | -85.40306 | 35454 ft | 445 kts | 287° |
| 2026-04-24 23:16 | 27.94018 | -85.43663 | 35616 ft | 451 kts | 287° |
| 2026-04-24 23:17 | 27.95007 | -85.47038 | 35843 ft | 453 kts | 287° |
| 2026-04-24 23:17 | 27.97009 | -85.53811 | 35880 ft | 455 kts | 288° |
| 2026-04-24 23:18 | 27.99025 | -85.60591 | 35883 ft | 455 kts | 288° |
| 2026-04-24 23:18 | 28.01049 | -85.67384 | 35852 ft | 456 kts | 288° |
| 2026-04-24 23:19 | 28.03082 | -85.74202 | 35749 ft | 458 kts | 288° |
| 2026-04-24 23:19 | 28.04100 | -85.77618 | 35540 ft | 458 kts | 288° |
| 2026-04-24 23:19 | 28.05119 | -85.81031 | 34678 ft | 461 kts | 288° |
| 2026-04-24 23:19 | 28.06150 | -85.84489 | 34326 ft | 465 kts | 288° |
| 2026-04-24 23:20 | 28.07183 | -85.87955 | 34126 ft | 465 kts | 288° |
| 2026-04-24 23:20 | 28.09246 | -85.94893 | 33987 ft | 465 kts | 288° |
| 2026-04-24 23:21 | 28.11306 | -86.01837 | 33955 ft | 465 kts | 288° |
| 2026-04-24 23:21 | 28.13364 | -86.08785 | 33944 ft | 465 kts | 288° |
| 2026-04-24 23:22 | 28.15421 | -86.15747 | 33944 ft | 466 kts | 288° |
| 2026-04-24 23:22 | 28.16445 | -86.19219 | 33894 ft | 455 kts | 289° |
| 2026-04-24 23:22 | 28.17418 | -86.22577 | 33917 ft | 446 kts | 289° |
| 2026-04-24 23:23 | 28.19377 | -86.29247 | 33941 ft | 446 kts | 290° |
| 2026-04-24 23:23 | 28.21341 | -86.35909 | 33939 ft | 446 kts | 290° |
| 2026-04-24 23:24 | 28.23302 | -86.42572 | 33944 ft | 445 kts | 289° |
| 2026-04-24 23:24 | 28.25257 | -86.49237 | 33932 ft | 445 kts | 289° |
| 2026-04-24 23:25 | 28.27206 | -86.55897 | 33937 ft | 445 kts | 289° |
| 2026-04-24 23:25 | 28.29148 | -86.62562 | 33945 ft | 445 kts | 289° |
| 2026-04-24 23:26 | 28.31089 | -86.69224 | 33933 ft | 445 kts | 289° |
| 2026-04-24 23:26 | 28.33041 | -86.75881 | 33936 ft | 444 kts | 289° |
| 2026-04-24 23:27 | 28.34992 | -86.82532 | 33933 ft | 444 kts | 289° |
| 2026-04-24 23:27 | 28.36926 | -86.89141 | 33938 ft | 444 kts | 289° |
| 2026-04-24 23:28 | 28.38869 | -86.95796 | 33932 ft | 444 kts | 289° |
| 2026-04-24 23:28 | 28.40806 | -87.02449 | 33930 ft | 443 kts | 289° |
| 2026-04-24 23:29 | 28.42736 | -87.09095 | 33927 ft | 443 kts | 289° |
| 2026-04-24 23:29 | 28.44663 | -87.15741 | 33923 ft | 443 kts | 289° |
| 2026-04-24 23:30 | 28.46583 | -87.22382 | 33926 ft | 442 kts | 289° |
| 2026-04-24 23:30 | 28.48498 | -87.29018 | 33938 ft | 442 kts | 289° |
| 2026-04-24 23:31 | 28.50408 | -87.35649 | 33939 ft | 441 kts | 289° |
| 2026-04-24 23:31 | 28.52311 | -87.42273 | 33929 ft | 441 kts | 289° |
| 2026-04-24 23:32 | 28.54210 | -87.48896 | 33917 ft | 440 kts | 289° |
| 2026-04-24 23:32 | 28.56103 | -87.55509 | 33934 ft | 439 kts | 289° |
| 2026-04-24 23:33 | 28.57989 | -87.62116 | 33933 ft | 439 kts | 289° |
| 2026-04-24 23:33 | 28.59871 | -87.68718 | 33923 ft | 438 kts | 289° |
| 2026-04-24 23:34 | 28.61745 | -87.75310 | 33919 ft | 438 kts | 289° |
| 2026-04-24 23:34 | 28.63615 | -87.81897 | 33929 ft | 437 kts | 289° |
| 2026-04-24 23:35 | 28.65466 | -87.88433 | 33930 ft | 437 kts | 289° |
| 2026-04-24 23:35 | 28.67325 | -87.95014 | 33921 ft | 436 kts | 289° |
| 2026-04-24 23:36 | 28.69180 | -88.01593 | 33927 ft | 436 kts | 289° |
| 2026-04-24 23:36 | 28.71029 | -88.08168 | 33929 ft | 436 kts | 289° |
| 2026-04-24 23:37 | 28.72877 | -88.14738 | 33923 ft | 436 kts | 289° |
| 2026-04-24 23:37 | 28.75644 | -88.24596 | 33921 ft | 435 kts | 289° |
| 2026-04-24 23:38 | 28.77480 | -88.31162 | 33925 ft | 435 kts | 289° |
| 2026-04-24 23:38 | 28.79310 | -88.37724 | 33925 ft | 434 kts | 289° |
| 2026-04-24 23:39 | 28.81134 | -88.44280 | 33923 ft | 434 kts | 289° |
| 2026-04-24 23:39 | 28.82954 | -88.50834 | 33920 ft | 433 kts | 289° |
| 2026-04-24 23:40 | 28.84768 | -88.57383 | 33920 ft | 433 kts | 289° |
| 2026-04-24 23:40 | 28.86579 | -88.63935 | 33923 ft | 433 kts | 289° |
| 2026-04-24 23:41 | 28.88258 | -88.70527 | 33922 ft | 433 kts | 287° |
| 2026-04-24 23:41 | 28.89753 | -88.77181 | 33919 ft | 433 kts | 286° |
| 2026-04-24 23:42 | 28.91201 | -88.83844 | 33919 ft | 433 kts | 285° |
| 2026-04-24 23:42 | 28.92621 | -88.90468 | 33914 ft | 432 kts | 285° |
| 2026-04-24 23:43 | 28.94042 | -88.97134 | 33918 ft | 432 kts | 285° |
| 2026-04-24 23:43 | 28.95456 | -89.03802 | 33912 ft | 432 kts | 285° |
| 2026-04-24 23:44 | 28.96865 | -89.10463 | 33911 ft | 432 kts | 285° |
| 2026-04-24 23:44 | 28.98041 | -89.16046 | 33911 ft | 431 kts | 285° |
| 2026-04-24 23:45 | 28.99430 | -89.22656 | 33906 ft | 431 kts | 285° |
| 2026-04-24 23:45 | 29.01061 | -89.30434 | 33907 ft | 431 kts | 285° |
| 2026-04-24 23:46 | 29.02217 | -89.35965 | 33907 ft | 430 kts | 285° |
| 2026-04-24 23:46 | 29.02912 | -89.39297 | 33182 ft | 433 kts | 285° |
| 2026-04-24 23:46 | 29.03611 | -89.42664 | 31112 ft | 438 kts | 285° |
| 2026-04-24 23:47 | 29.04319 | -89.46079 | 29584 ft | 443 kts | 285° |
| 2026-04-24 23:47 | 29.05025 | -89.49493 | 29146 ft | 437 kts | 285° |
| 2026-04-24 23:47 | 29.05712 | -89.52825 | 28442 ft | 426 kts | 285° |
| 2026-04-24 23:47 | 29.06390 | -89.56110 | 27183 ft | 423 kts | 285° |
| 2026-04-24 23:48 | 29.07064 | -89.59365 | 25864 ft | 419 kts | 284° |
| 2026-04-24 23:48 | 29.07736 | -89.62596 | 24582 ft | 416 kts | 284° |
| 2026-04-24 23:48 | 29.08406 | -89.65807 | 23347 ft | 414 kts | 284° |
| 2026-04-24 23:48 | 29.09069 | -89.68992 | 22028 ft | 409 kts | 284° |
| 2026-04-24 23:49 | 29.09720 | -89.72139 | 20807 ft | 404 kts | 284° |
| 2026-04-24 23:49 | 29.10362 | -89.75244 | 19631 ft | 399 kts | 284° |
| 2026-04-24 23:49 | 29.10994 | -89.78316 | 18497 ft | 395 kts | 284° |
| 2026-04-24 23:49 | 29.11618 | -89.81360 | 17302 ft | 390 kts | 284° |
| 2026-04-24 23:50 | 29.12232 | -89.84355 | 16187 ft | 384 kts | 284° |
| 2026-04-24 23:50 | 29.12843 | -89.87337 | 15123 ft | 385 kts | 283° |
| 2026-04-24 23:50 | 29.13448 | -89.90284 | 14144 ft | 377 kts | 283° |
| 2026-04-24 23:50 | 29.14028 | -89.93123 | 13986 ft | 354 kts | 283° |
| 2026-04-24 23:51 | 29.14574 | -89.95815 | 14005 ft | 344 kts | 283° |
| 2026-04-24 23:51 | 29.15116 | -89.98484 | 14008 ft | 348 kts | 283° |
| 2026-04-24 23:51 | 29.15671 | -90.01229 | 14034 ft | 361 kts | 283° |
| 2026-04-24 23:51 | 29.16249 | -90.04079 | 14361 ft | 370 kts | 283° |
| 2026-04-24 23:52 | 29.16812 | -90.06902 | 14658 ft | 366 kts | 283° |
| 2026-04-24 23:52 | 29.17360 | -90.09792 | 14788 ft | 375 kts | 282° |
| 2026-04-24 23:52 | 29.17896 | -90.12717 | 14842 ft | 376 kts | 282° |
| 2026-04-24 23:52 | 29.18416 | -90.15605 | 14869 ft | 375 kts | 282° |
| 2026-04-24 23:53 | 29.18939 | -90.18530 | 14880 ft | 376 kts | 282° |
| 2026-04-24 23:53 | 29.19465 | -90.21500 | 14886 ft | 376 kts | 282° |
| 2026-04-24 23:53 | 29.19980 | -90.24435 | 14888 ft | 376 kts | 282° |
| 2026-04-24 23:53 | 29.20486 | -90.27322 | 14888 ft | 375 kts | 282° |
| 2026-04-24 23:54 | 29.20998 | -90.30252 | 14891 ft | 375 kts | 282° |
| 2026-04-24 23:54 | 29.21508 | -90.33180 | 14890 ft | 376 kts | 282° |
| 2026-04-24 23:54 | 29.22017 | -90.36111 | 14888 ft | 375 kts | 282° |
| 2026-04-24 23:54 | 29.22525 | -90.39036 | 14889 ft | 375 kts | 282° |
| 2026-04-24 23:55 | 29.23032 | -90.41964 | 14890 ft | 375 kts | 282° |
| 2026-04-24 23:55 | 29.23538 | -90.44890 | 14890 ft | 375 kts | 281° |
| 2026-04-24 23:55 | 29.24043 | -90.47814 | 14890 ft | 374 kts | 281° |
| 2026-04-24 23:55 | 29.24546 | -90.50738 | 14887 ft | 375 kts | 281° |
| 2026-04-24 23:56 | 29.25051 | -90.53669 | 14886 ft | 375 kts | 281° |
| 2026-04-24 23:56 | 29.25555 | -90.56594 | 14882 ft | 374 kts | 281° |
| 2026-04-24 23:56 | 29.26056 | -90.59515 | 14885 ft | 374 kts | 281° |
| 2026-04-24 23:56 | 29.26556 | -90.62435 | 14889 ft | 374 kts | 281° |
| 2026-04-24 23:57 | 29.27042 | -90.65364 | 14884 ft | 375 kts | 280° |
| 2026-04-24 23:57 | 29.27429 | -90.68315 | 14884 ft | 374 kts | 278° |
| 2026-04-24 23:57 | 29.27764 | -90.71268 | 14882 ft | 373 kts | 277° |
| 2026-04-24 23:57 | 29.28078 | -90.74219 | 14882 ft | 374 kts | 277° |
| 2026-04-24 23:58 | 29.28385 | -90.77178 | 14885 ft | 374 kts | 277° |
| 2026-04-24 23:58 | 29.28690 | -90.80135 | 14883 ft | 374 kts | 277° |
| 2026-04-24 23:58 | 29.28994 | -90.83087 | 14882 ft | 373 kts | 277° |
| 2026-04-24 23:58 | 29.29300 | -90.86040 | 14884 ft | 373 kts | 277° |
| 2026-04-24 23:59 | 29.29608 | -90.88991 | 14883 ft | 373 kts | 277° |
| 2026-04-24 23:59 | 29.29917 | -90.91941 | 14883 ft | 373 kts | 277° |
| 2026-04-24 23:59 | 29.30228 | -90.94895 | 14880 ft | 374 kts | 277° |
| 2026-04-24 23:59 | 29.30541 | -90.97850 | 14881 ft | 374 kts | 277° |
| 2026-04-25 00:00 | 29.30854 | -91.00804 | 14882 ft | 373 kts | 277° |
| 2026-04-25 00:00 | 29.31166 | -91.03753 | 14882 ft | 373 kts | 277° |
| 2026-04-25 00:00 | 29.31480 | -91.06706 | 14884 ft | 373 kts | 277° |
| 2026-04-25 00:00 | 29.31794 | -91.09659 | 14882 ft | 373 kts | 277° |
| 2026-04-25 00:01 | 29.32109 | -91.12612 | 14884 ft | 373 kts | 277° |
| 2026-04-25 00:01 | 29.32422 | -91.15563 | 14883 ft | 373 kts | 277° |
| 2026-04-25 00:01 | 29.32735 | -91.18514 | 14885 ft | 373 kts | 277° |
| 2026-04-25 00:01 | 29.33048 | -91.21467 | 14893 ft | 373 kts | 277° |
| 2026-04-25 00:02 | 29.33361 | -91.24417 | 14885 ft | 373 kts | 277° |
| 2026-04-25 00:02 | 29.33672 | -91.27366 | 14885 ft | 373 kts | 277° |
| 2026-04-25 00:02 | 29.33984 | -91.30321 | 14887 ft | 374 kts | 277° |
| 2026-04-25 00:02 | 29.34295 | -91.33277 | 14884 ft | 374 kts | 277° |
| 2026-04-25 00:03 | 29.34607 | -91.36236 | 14886 ft | 374 kts | 277° |
| 2026-04-25 00:03 | 29.34917 | -91.39192 | 14885 ft | 374 kts | 277° |
| 2026-04-25 00:03 | 29.35227 | -91.42150 | 14884 ft | 374 kts | 277° |
| 2026-04-25 00:03 | 29.35537 | -91.45114 | 14884 ft | 374 kts | 277° |
| 2026-04-25 00:04 | 29.35846 | -91.48075 | 14878 ft | 374 kts | 278° |
| 2026-04-25 00:04 | 29.36153 | -91.51034 | 14882 ft | 374 kts | 278° |
| 2026-04-25 00:04 | 29.36461 | -91.54001 | 14881 ft | 375 kts | 278° |
| 2026-04-25 00:04 | 29.36767 | -91.56968 | 14876 ft | 374 kts | 278° |
| 2026-04-25 00:05 | 29.37069 | -91.59888 | 14874 ft | 374 kts | 278° |
| 2026-04-25 00:05 | 29.37375 | -91.62851 | 14876 ft | 375 kts | 278° |
| 2026-04-25 00:05 | 29.37681 | -91.65818 | 14874 ft | 375 kts | 278° |
| 2026-04-25 00:05 | 29.37986 | -91.68788 | 14874 ft | 375 kts | 278° |
| 2026-04-25 00:06 | 29.38290 | -91.71756 | 14876 ft | 374 kts | 278° |
| 2026-04-25 00:06 | 29.38594 | -91.74720 | 14871 ft | 375 kts | 278° |
| 2026-04-25 00:06 | 29.38899 | -91.77692 | 14871 ft | 376 kts | 278° |
| 2026-04-25 00:06 | 29.39203 | -91.80665 | 14869 ft | 375 kts | 278° |
| 2026-04-25 00:07 | 29.39505 | -91.83638 | 14867 ft | 375 kts | 278° |
| 2026-04-25 00:07 | 29.39807 | -91.86609 | 14868 ft | 375 kts | 277° |
| 2026-04-25 00:07 | 29.40109 | -91.89585 | 14865 ft | 376 kts | 277° |
| 2026-04-25 00:07 | 29.40409 | -91.92559 | 14865 ft | 375 kts | 277° |
| 2026-04-25 00:08 | 29.40709 | -91.95532 | 14864 ft | 375 kts | 277° |
| 2026-04-25 00:08 | 29.41007 | -91.98503 | 14860 ft | 376 kts | 277° |
| 2026-04-25 00:08 | 29.41305 | -92.01481 | 14861 ft | 376 kts | 277° |
| 2026-04-25 00:08 | 29.41603 | -92.04456 | 14857 ft | 375 kts | 277° |
| 2026-04-25 00:09 | 29.41908 | -92.07404 | 14856 ft | 368 kts | 278° |
| 2026-04-25 00:09 | 29.42242 | -92.10310 | 14857 ft | 369 kts | 278° |
| 2026-04-25 00:09 | 29.42575 | -92.13241 | 14858 ft | 372 kts | 278° |
| 2026-04-25 00:09 | 29.42896 | -92.16194 | 14865 ft | 374 kts | 278° |
| 2026-04-25 00:10 | 29.43207 | -92.19166 | 14853 ft | 376 kts | 277° |
| 2026-04-25 00:10 | 29.43512 | -92.22153 | 14853 ft | 378 kts | 277° |
| 2026-04-25 00:10 | 29.43809 | -92.25150 | 14854 ft | 378 kts | 277° |
| 2026-04-25 00:10 | 29.44095 | -92.28138 | 14853 ft | 376 kts | 277° |
| 2026-04-25 00:11 | 29.44376 | -92.31114 | 14858 ft | 375 kts | 277° |
| 2026-04-25 00:11 | 29.44656 | -92.34085 | 14856 ft | 375 kts | 277° |
| 2026-04-25 00:11 | 29.44932 | -92.37061 | 14851 ft | 375 kts | 277° |
| 2026-04-25 00:11 | 29.45203 | -92.40038 | 14860 ft | 375 kts | 277° |
| 2026-04-25 00:12 | 29.45467 | -92.43019 | 14848 ft | 375 kts | 277° |
| 2026-04-25 00:12 | 29.46135 | -92.45889 | 14857 ft | 373 kts | 293° |
| 2026-04-25 00:12 | 29.47263 | -92.48566 | 14881 ft | 374 kts | 302° |
| 2026-04-25 00:12 | 29.48651 | -92.51086 | 14887 ft | 374 kts | 297° |
| 2026-04-25 00:13 | 29.49507 | -92.53889 | 14959 ft | 373 kts | 279° |
| 2026-04-25 00:13 | 29.49442 | -92.56869 | 15035 ft | 375 kts | 266° |
| 2026-04-25 00:13 | 29.49205 | -92.59839 | 15153 ft | 373 kts | 267° |
| 2026-04-25 00:13 | 29.49043 | -92.62805 | 15197 ft | 373 kts | 268° |
| 2026-04-25 00:14 | 29.49095 | -92.65791 | 15084 ft | 376 kts | 274° |
| 2026-04-25 00:14 | 29.49244 | -92.68779 | 15221 ft | 374 kts | 275° |
| 2026-04-25 00:14 | 29.49434 | -92.71753 | 15233 ft | 375 kts | 275° |
| 2026-04-25 00:14 | 29.49597 | -92.74748 | 15213 ft | 377 kts | 274° |
| 2026-04-25 00:15 | 29.49733 | -92.77761 | 15222 ft | 378 kts | 274° |
| 2026-04-25 00:15 | 29.49741 | -92.80782 | 15253 ft | 379 kts | 270° |
| 2026-04-25 00:15 | 29.49727 | -92.83776 | 15156 ft | 382 kts | 272° |
| 2026-04-25 00:15 | 29.49770 | -92.86815 | 15031 ft | 380 kts | 272° |
| 2026-04-25 00:16 | 29.49852 | -92.89829 | 14907 ft | 376 kts | 273° |
| 2026-04-25 00:16 | 29.49984 | -92.92816 | 14780 ft | 374 kts | 274° |
| 2026-04-25 00:16 | 29.50182 | -92.95785 | 14658 ft | 373 kts | 276° |
| 2026-04-25 00:16 | 29.50456 | -92.98746 | 14548 ft | 373 kts | 277° |
| 2026-04-25 00:17 | 29.50939 | -93.01658 | 14525 ft | 371 kts | 288° |
| 2026-04-25 00:17 | 29.51655 | -93.04506 | 14538 ft | 372 kts | 282° |
| 2026-04-25 00:17 | 29.52009 | -93.07446 | 14640 ft | 371 kts | 274° |
| 2026-04-25 00:17 | 29.52177 | -93.10395 | 14758 ft | 370 kts | 275° |
| 2026-04-25 00:18 | 29.52383 | -93.13336 | 14806 ft | 371 kts | 275° |
| 2026-04-25 00:18 | 29.52601 | -93.16291 | 14831 ft | 372 kts | 275° |
| 2026-04-25 00:18 | 29.52789 | -93.19263 | 14851 ft | 374 kts | 274° |
| 2026-04-25 00:18 | 29.52935 | -93.22254 | 14847 ft | 376 kts | 274° |
| 2026-04-25 00:19 | 29.53067 | -93.25260 | 14846 ft | 378 kts | 273° |
| 2026-04-25 00:19 | 29.53195 | -93.28279 | 14852 ft | 379 kts | 273° |
| 2026-04-25 00:19 | 29.53318 | -93.31301 | 14856 ft | 378 kts | 273° |
| 2026-04-25 00:19 | 29.53435 | -93.34309 | 14846 ft | 376 kts | 273° |
| 2026-04-25 00:20 | 29.53552 | -93.37302 | 14850 ft | 375 kts | 273° |
| 2026-04-25 00:20 | 29.53672 | -93.40292 | 14851 ft | 375 kts | 273° |
| 2026-04-25 00:20 | 29.53793 | -93.43286 | 14848 ft | 376 kts | 273° |
| 2026-04-25 00:20 | 29.53914 | -93.46286 | 14841 ft | 376 kts | 273° |
| 2026-04-25 00:21 | 29.54033 | -93.49286 | 14849 ft | 376 kts | 273° |
| 2026-04-25 00:21 | 29.54151 | -93.52284 | 14840 ft | 376 kts | 273° |
| 2026-04-25 00:21 | 29.54268 | -93.55280 | 14838 ft | 376 kts | 273° |
| 2026-04-25 00:21 | 29.54386 | -93.58278 | 14848 ft | 376 kts | 273° |
| 2026-04-25 00:22 | 29.54503 | -93.61235 | 14839 ft | 376 kts | 273° |
| 2026-04-25 00:22 | 29.54622 | -93.64238 | 14838 ft | 377 kts | 273° |
| 2026-04-25 00:22 | 29.54740 | -93.67281 | 14839 ft | 376 kts | 273° |
| 2026-04-25 00:22 | 29.54857 | -93.70280 | 14849 ft | 376 kts | 273° |
| 2026-04-25 00:23 | 29.54975 | -93.73279 | 14837 ft | 376 kts | 273° |
| 2026-04-25 00:23 | 29.55092 | -93.76276 | 14839 ft | 376 kts | 273° |
| 2026-04-25 00:23 | 29.55210 | -93.79274 | 14841 ft | 376 kts | 273° |
| 2026-04-25 00:23 | 29.55328 | -93.82277 | 14837 ft | 377 kts | 273° |
| 2026-04-25 00:24 | 29.55445 | -93.85281 | 14836 ft | 376 kts | 273° |
| 2026-04-25 00:24 | 29.55559 | -93.88245 | 14836 ft | 376 kts | 273° |
| 2026-04-25 00:24 | 29.55523 | -93.91245 | 14842 ft | 376 kts | 266° |
| 2026-04-25 00:24 | 29.55246 | -93.94235 | 14845 ft | 377 kts | 264° |
| 2026-04-25 00:25 | 29.54906 | -93.97222 | 14836 ft | 377 kts | 263° |